createdAt,value
2022-10-01T00:00:10.187Z,33.10
2022-10-01T00:03:51.870Z,39.60
2022-10-01T00:07:44.852Z,37.07
2022-10-01T00:11:26.958Z,35.07
2022-10-01T00:15:13.339Z,32.13
2022-10-01T00:18:56.222Z,28.47
2022-10-01T00:22:37.969Z,29.30
2022-10-01T00:26:23.143Z,30.50
2022-10-01T00:30:06.704Z,21.37
2022-10-01T00:33:48.800Z,22.23
2022-10-01T00:37:31.083Z,17.37
2022-10-01T00:41:12.805Z,20.90
2022-10-01T00:44:54.790Z,25.37
2022-10-01T00:48:45.118Z,22.50
2022-10-01T00:52:32.026Z,16.95
2022-10-01T00:56:13.885Z,25.47
2022-10-01T00:59:59.969Z,25.23
2022-10-01T01:03:41.702Z,31.47
2022-10-01T01:07:23.534Z,18.87
2022-10-01T01:11:16.461Z,29.10
2022-10-01T01:15:08.458Z,24.03
2022-10-01T01:19:04.694Z,23.73
2022-10-01T01:22:57.151Z,29.47
2022-10-01T01:27:03.211Z,21.50
2022-10-01T01:30:49.224Z,23.37
2022-10-01T01:34:32.728Z,25.57
2022-10-01T01:38:20.725Z,23.50
2022-10-01T01:42:09.120Z,26.07
2022-10-01T01:45:55.210Z,25.63
2022-10-01T01:49:39.393Z,31.47
2022-10-01T01:53:21.464Z,30.73
2022-10-01T01:57:04.487Z,27.40
2022-10-01T02:00:52.299Z,30.57
2022-10-01T02:04:49.265Z,29.70
2022-10-01T02:08:41.066Z,27.87
2022-10-01T02:12:40.858Z,31.13
2022-10-01T02:16:50.504Z,23.47
2022-10-01T02:20:54.568Z,37.50
2022-10-01T02:24:57.145Z,30.40
2022-10-01T02:28:41.156Z,31.33
2022-10-01T02:32:24.098Z,28.70
2022-10-01T02:36:08.934Z,31.80
2022-10-01T02:39:52.609Z,29.37
2022-10-01T02:43:53.676Z,34.10
2022-10-01T02:47:41.721Z,22.80
2022-10-01T02:51:53.477Z,29.53
2022-10-01T02:55:38.323Z,25.27
2022-10-01T02:59:22.343Z,22.00
2022-10-01T03:03:04.137Z,24.80
2022-10-01T03:06:46.386Z,34.63
2022-10-01T03:10:28.222Z,26.07
2022-10-01T03:14:11.067Z,22.40
2022-10-01T03:17:53.884Z,37.47
2022-10-01T03:21:36.015Z,30.73
2022-10-01T03:25:18.305Z,25.87
2022-10-01T03:29:00.001Z,26.23
2022-10-01T03:32:41.792Z,27.40
2022-10-01T03:36:23.508Z,31.07
2022-10-01T03:40:05.939Z,27.10
2022-10-01T03:43:47.631Z,25.63
2022-10-01T03:47:29.323Z,30.40
2022-10-01T03:51:11.016Z,27.93
2022-10-01T03:54:52.823Z,25.47
2022-10-01T03:58:34.538Z,25.70
2022-10-01T04:02:16.368Z,29.83
2022-10-01T04:05:58.377Z,31.37
2022-10-01T04:09:40.065Z,26.97
2022-10-01T04:13:21.833Z,25.90
2022-10-01T04:17:03.591Z,28.47
2022-10-01T04:20:45.294Z,27.00
2022-10-01T04:24:27.010Z,26.73
2022-10-01T04:28:11.572Z,29.60
2022-10-01T04:31:53.754Z,31.00
2022-10-01T04:35:35.918Z,23.27
2022-10-01T04:39:17.617Z,15.30
2022-10-01T04:42:59.430Z,26.47
2022-10-01T04:46:41.418Z,24.33
2022-10-01T04:50:25.597Z,21.23
2022-10-01T04:54:07.437Z,24.73
2022-10-01T04:57:49.528Z,21.33
2022-10-01T05:01:32.475Z,20.03
2022-10-01T05:05:15.113Z,22.40
2022-10-01T05:08:56.815Z,24.50
2022-10-01T05:12:38.506Z,15.80
2022-10-01T05:16:20.312Z,18.37
2022-10-01T05:20:03.240Z,27.67
2022-10-01T05:23:44.944Z,22.00
2022-10-01T05:27:27.451Z,22.20
2022-10-01T05:31:09.340Z,27.23
2022-10-01T05:34:53.611Z,18.17
2022-10-01T05:38:37.257Z,23.47
2022-10-01T05:42:19.057Z,20.87
2022-10-01T05:46:02.095Z,23.77
2022-10-01T05:49:44.733Z,18.80
2022-10-01T05:53:26.962Z,20.50
2022-10-01T05:57:09.352Z,22.47
2022-10-01T06:00:51.053Z,27.30
2022-10-01T06:04:36.624Z,27.37
2022-10-01T06:08:21.888Z,28.07
2022-10-01T06:12:07.230Z,20.70
2022-10-01T06:15:52.610Z,24.40
2022-10-01T06:19:34.301Z,17.40
2022-10-01T06:23:16.027Z,27.90
2022-10-01T06:26:57.872Z,30.23
2022-10-01T06:30:40.162Z,20.60
2022-10-01T06:34:21.954Z,25.63
2022-10-01T06:38:03.709Z,20.07
2022-10-01T06:41:47.200Z,22.40
2022-10-01T06:45:30.659Z,25.57
2022-10-01T06:49:13.778Z,22.17
2022-10-01T06:52:56.834Z,25.30
2022-10-01T06:56:38.518Z,25.03
2022-10-01T07:00:20.221Z,31.87
2022-10-01T07:04:02.453Z,26.43
2022-10-01T07:07:49.094Z,24.47
2022-10-01T07:11:31.446Z,25.10
2022-10-01T07:15:13.339Z,23.53
2022-10-01T07:18:55.032Z,26.63
2022-10-01T07:22:36.777Z,30.10
2022-10-01T07:26:18.830Z,32.27
2022-10-01T07:30:00.564Z,28.13
2022-10-01T07:33:42.326Z,31.80
2022-10-01T07:37:24.180Z,24.60
2022-10-01T07:41:05.891Z,25.77
2022-10-01T07:44:47.637Z,23.37
2022-10-01T07:48:29.410Z,23.80
2022-10-01T07:52:13.453Z,23.97
2022-10-01T07:55:55.365Z,21.10
2022-10-01T07:59:38.180Z,17.40
2022-10-01T08:03:19.860Z,20.43
2022-10-01T08:07:01.829Z,19.93
2022-10-01T08:10:43.554Z,22.03
2022-10-01T08:14:26.082Z,31.57
2022-10-01T08:18:08.341Z,19.07
2022-10-01T08:21:50.148Z,15.27
2022-10-01T08:25:32.650Z,20.53
2022-10-01T08:29:17.078Z,20.10
2022-10-01T08:33:00.839Z,23.63
2022-10-01T08:36:42.825Z,27.90
2022-10-01T08:40:24.719Z,17.23
2022-10-01T08:44:09.715Z,11.87
2022-10-01T08:48:31.032Z,13.80
2022-10-01T08:52:28.504Z,17.23
2022-10-01T08:56:22.936Z,13.00
2022-10-01T09:00:10.973Z,14.73
2022-10-01T09:03:53.748Z,15.23
2022-10-01T09:07:56.669Z,14.00
2022-10-01T09:12:19.044Z,11.83
2022-10-01T09:16:27.524Z,16.37
2022-10-01T09:20:17.654Z,13.30
2022-10-01T09:23:59.322Z,15.52
2022-10-01T09:27:41.377Z,15.73
2022-10-01T09:31:32.993Z,17.60
2022-10-01T09:35:40.430Z,22.60
2022-10-01T09:39:29.825Z,20.00
2022-10-01T09:43:12.573Z,19.13
2022-10-01T09:46:55.341Z,19.40
2022-10-01T09:50:55.657Z,16.47
2022-10-01T09:54:47.140Z,20.23
2022-10-01T09:58:30.154Z,16.83
2022-10-01T10:02:30.304Z,16.53
2022-10-01T10:06:12.472Z,23.35
2022-10-01T10:09:54.430Z,20.00
2022-10-01T10:13:50.585Z,20.93
2022-10-01T10:17:35.276Z,15.53
2022-10-01T10:21:21.776Z,16.57
2022-10-01T10:25:15.620Z,20.17
2022-10-01T10:28:57.725Z,19.03
2022-10-01T10:32:40.036Z,16.80
2022-10-01T10:36:28.099Z,19.07
2022-10-01T10:40:20.090Z,12.87
2022-10-01T10:44:07.429Z,19.20
2022-10-01T10:47:52.922Z,13.00
2022-10-01T10:51:53.922Z,13.27
2022-10-01T10:55:36.217Z,12.73
2022-10-01T10:59:18.498Z,11.68
2022-10-01T11:03:06.458Z,14.85
2022-10-01T11:06:58.868Z,11.35
2022-10-01T11:10:58.648Z,8.13
2022-10-01T11:18:49.271Z,15.27
2022-10-01T11:22:40.165Z,9.50
2022-10-01T11:26:28.257Z,10.20
2022-10-01T11:30:20.992Z,7.18
2022-10-01T11:34:27.448Z,10.50
2022-10-01T11:38:46.933Z,11.63
2022-10-01T11:42:36.645Z,9.57
2022-10-01T11:50:20.128Z,9.25
2022-10-01T11:54:09.560Z,9.02
2022-10-01T11:58:17.506Z,4.85
2022-10-01T12:02:26.091Z,5.78
2022-10-01T12:06:14.880Z,4.47
2022-10-01T12:10:24.282Z,5.77
2022-10-01T12:14:35.762Z,7.07
2022-10-01T12:18:54.509Z,7.40
2022-10-01T12:22:38.294Z,7.57
2022-10-01T12:26:31.232Z,7.28
2022-10-01T12:30:22.628Z,9.45
2022-10-01T12:34:15.784Z,8.02
2022-10-01T12:38:15.401Z,11.70
2022-10-01T12:42:07.320Z,11.25
2022-10-01T12:46:02.558Z,13.73
2022-10-01T12:50:11.621Z,13.23
2022-10-01T12:54:31.067Z,14.30
2022-10-01T12:58:45.754Z,8.63
2022-10-01T13:02:58.052Z,11.30
2022-10-01T13:06:51.843Z,13.53
2022-10-01T13:11:03.361Z,11.13
2022-10-01T13:14:46.473Z,12.30
2022-10-01T13:18:46.952Z,10.73
2022-10-01T13:22:38.232Z,10.97
2022-10-01T13:26:40.484Z,12.60
2022-10-01T13:30:24.749Z,17.67
2022-10-01T13:34:35.000Z,13.60
2022-10-01T13:38:29.186Z,13.03
2022-10-01T13:42:22.950Z,12.07
2022-10-01T13:46:07.869Z,13.27
2022-10-01T13:50:03.980Z,18.10
2022-10-01T13:53:56.262Z,13.43
2022-10-01T13:57:39.327Z,12.57
2022-10-01T14:01:24.342Z,17.17
2022-10-01T14:05:29.482Z,13.20
2022-10-01T14:09:34.861Z,14.83
2022-10-01T14:13:35.045Z,13.17
2022-10-01T14:21:18.434Z,15.27
2022-10-01T14:25:15.343Z,10.00
2022-10-01T14:29:17.153Z,12.27
2022-10-01T14:33:27.499Z,9.10
2022-10-01T14:37:17.208Z,7.38
2022-10-01T14:40:59.206Z,14.95
2022-10-01T14:44:43.761Z,12.15
2022-10-01T14:48:31.200Z,13.77
2022-10-01T14:52:20.252Z,10.15
2022-10-01T14:56:08.924Z,12.30
2022-10-01T14:59:50.864Z,10.73
2022-10-01T15:03:40.090Z,9.32
2022-10-01T15:07:22.719Z,9.45
2022-10-01T15:11:08.953Z,9.35
2022-10-01T15:14:54.458Z,12.10
2022-10-01T15:18:36.819Z,9.80
2022-10-01T15:22:29.965Z,7.72
2022-10-01T15:26:14.083Z,11.07
2022-10-01T15:29:58.806Z,13.20
2022-10-01T15:33:41.430Z,10.23
2022-10-01T15:37:33.441Z,10.80
2022-10-01T15:41:32.665Z,10.90
2022-10-01T15:45:25.793Z,13.52
2022-10-01T15:49:15.683Z,11.07
2022-10-01T15:53:03.494Z,8.95
2022-10-01T15:56:48.593Z,11.37
2022-10-01T16:00:34.856Z,10.93
2022-10-01T16:04:16.695Z,11.60
2022-10-01T16:07:58.675Z,11.47
2022-10-01T16:11:59.255Z,10.33
2022-10-01T16:15:40.961Z,11.20
2022-10-01T16:19:30.545Z,9.77
2022-10-01T16:23:42.169Z,13.25
2022-10-01T16:27:45.117Z,11.33
2022-10-01T16:31:27.444Z,14.87
2022-10-01T16:35:35.915Z,14.40
2022-10-01T16:39:17.912Z,20.60
2022-10-01T16:43:00.433Z,13.13
2022-10-01T16:46:42.325Z,12.03
2022-10-01T16:50:24.818Z,16.27
2022-10-01T16:54:15.034Z,12.23
2022-10-01T16:57:56.713Z,11.05
2022-10-01T17:01:38.707Z,17.53
2022-10-01T17:05:32.136Z,12.47
2022-10-01T17:09:14.315Z,17.47
2022-10-01T17:12:56.590Z,11.57
2022-10-01T17:16:38.621Z,15.13
2022-10-01T17:20:22.033Z,9.17
2022-10-01T17:24:03.967Z,6.77
2022-10-01T17:27:45.820Z,9.13
2022-10-01T17:31:30.359Z,11.43
2022-10-01T17:35:14.132Z,10.43
2022-10-01T17:38:55.885Z,11.00
2022-10-01T17:42:37.989Z,10.70
2022-10-01T17:46:19.995Z,8.50
2022-10-01T17:50:02.863Z,10.43
2022-10-01T17:53:44.638Z,7.03
2022-10-01T17:57:26.378Z,12.13
2022-10-01T18:01:10.478Z,10.50
2022-10-01T18:04:52.238Z,12.33
2022-10-01T18:08:54.229Z,10.13
2022-10-01T18:12:37.088Z,12.27
2022-10-01T18:16:19.689Z,11.10
2022-10-01T18:20:01.972Z,8.03
2022-10-01T18:23:43.721Z,8.10
2022-10-01T18:27:25.468Z,13.27
2022-10-01T18:31:19.722Z,13.90
2022-10-01T18:35:02.450Z,7.37
2022-10-01T18:38:49.401Z,12.53
2022-10-01T18:42:34.076Z,9.50
2022-10-01T18:46:44.668Z,15.50
2022-10-01T18:54:26.336Z,24.00
2022-10-01T18:58:16.675Z,15.27
2022-10-01T19:02:15.995Z,12.05
2022-10-01T19:06:32.807Z,12.83
2022-10-01T19:10:30.250Z,14.80
2022-10-01T19:14:17.334Z,13.57
2022-10-01T19:18:37.807Z,16.30
2022-10-01T19:22:40.838Z,10.98
2022-10-01T19:26:34.184Z,13.77
2022-10-01T19:30:17.426Z,10.20
2022-10-01T19:34:17.442Z,10.03
2022-10-01T19:38:18.459Z,12.35
2022-10-01T19:42:07.219Z,16.30
2022-10-01T19:45:55.336Z,12.03
2022-10-01T19:49:38.262Z,14.37
2022-10-01T19:53:33.614Z,10.90
2022-10-01T19:57:29.498Z,8.20
2022-10-01T20:01:19.117Z,12.30
2022-10-01T20:05:03.648Z,14.77
2022-10-01T20:08:55.421Z,9.93
2022-10-01T20:12:49.044Z,15.70
2022-10-01T20:16:40.695Z,12.57
2022-10-01T20:20:47.797Z,18.77
2022-10-01T20:25:02.702Z,14.47
2022-10-01T20:28:56.558Z,14.17
2022-10-01T20:33:08.774Z,18.90
2022-10-01T20:36:53.434Z,16.27
2022-10-01T20:40:53.196Z,15.97
2022-10-01T20:44:38.036Z,16.17
2022-10-01T20:48:24.245Z,14.10
2022-10-01T20:52:31.138Z,21.07
2022-10-01T20:56:18.813Z,20.43
2022-10-01T21:00:13.617Z,21.10
2022-10-01T21:04:06.279Z,20.33
2022-10-01T21:07:59.891Z,16.53
2022-10-01T21:11:47.986Z,16.83
2022-10-01T21:15:41.273Z,17.70
2022-10-01T21:19:41.499Z,15.50
2022-10-01T21:23:29.946Z,15.48
2022-10-01T21:27:48.042Z,21.60
2022-10-01T21:32:06.834Z,16.80
2022-10-01T21:36:20.806Z,21.77
2022-10-01T21:40:17.915Z,22.83
2022-10-01T21:44:11.128Z,16.53
2022-10-01T21:48:19.842Z,18.67
2022-10-01T21:52:10.741Z,19.97
2022-10-01T21:56:14.025Z,18.17
2022-10-01T22:00:12.158Z,16.67
2022-10-01T22:04:17.725Z,21.13
2022-10-01T22:08:18.603Z,19.67
2022-10-01T22:15:45.567Z,18.23
2022-10-01T22:19:38.135Z,24.60
2022-10-01T22:23:20.143Z,18.57
2022-10-01T22:27:12.536Z,22.60
2022-10-01T22:30:57.423Z,15.17
2022-10-01T22:34:44.059Z,16.90
2022-10-01T22:38:40.586Z,19.07
2022-10-01T22:42:30.266Z,25.07
2022-10-01T22:46:44.406Z,13.73
2022-10-01T22:50:39.076Z,21.53
2022-10-01T22:54:39.886Z,16.97
2022-10-01T23:02:27.279Z,15.17
2022-10-01T23:06:29.568Z,15.13
2022-10-01T23:10:21.668Z,17.93
2022-10-01T23:14:13.015Z,15.23
2022-10-01T23:18:07.874Z,17.83
2022-10-01T23:22:23.909Z,13.97
2022-10-01T23:26:20.606Z,19.00
2022-10-01T23:30:11.544Z,16.90
2022-10-01T23:34:27.073Z,15.37
2022-10-01T23:38:14.599Z,13.70
2022-10-01T23:42:02.174Z,17.30
2022-10-01T23:45:47.882Z,12.83
2022-10-01T23:49:35.625Z,14.03
2022-10-01T23:53:20.128Z,12.77
2022-10-01T23:57:07.722Z,12.90
